Flight Track Log - Related Links

Times and Time Zones

All times are in EDT time to prevent confusion due to time zone crossing. See the N86354 flight status page for this flight to view local times or setup timezone preferences in your user account.

Time Position Orientation Groundspeed Altitude Reporting Facility
EDT Latitude Longitude Course Direction KTS MPH feet Rate Location/Type
Sun 01:55:51 PM 41.4344 -85.6297 180° South 121 139 4,500  Level Chicago Center
Sun 01:56:53 PM 41.3992 -85.6297 180° South 123 142 4,300 -48 Descending Chicago Center
Sun 01:57:55 PM 41.3647 -85.6269 177° South 125 144 4,400  Climbing Chicago Center
Sun 01:58:57 PM 41.3311 -85.6225 174° South 124 143 4,300  Descending Chicago Center
Sun 01:59:59 PM 41.2900 -85.6211 179° South 123 142 4,400 48 Climbing Chicago Center
Sun 02:01:01 PM 41.2575 -85.6194 178° South 121 139 4,400  Level Chicago Center
Sun 02:02:03 PM 41.2236 -85.6181 178° South 121 139 4,400  Level Chicago Center
Sun 02:03:05 PM 41.1878 -85.6186 181° South 125 144 4,400 -48 Level Chicago Center
Sun 02:04:07 PM 41.1525 -85.6189 180° South 126 145 4,300 -48 Descending Chicago Center
Sun 02:05:09 PM 41.1175 -85.6181 179° South 126 145 4,300 48 Level Chicago Center
Sun 02:06:11 PM 41.0778 -85.6147 176° South 123 142 4,400 48 Climbing Chicago Center
Sun 02:07:14 PM 41.0436 -85.6131 178° South 122 140 4,400  Level Chicago Center
Sun 02:08:16 PM 41.0075 -85.6122 179° South 125 144 4,400  Level Chicago Center
Sun 02:09:18 PM 40.9728 -85.6144 183° South 126 145 4,400 -48 Level Chicago Center
Sun 02:10:20 PM 40.9383 -85.6131 178° South 126 145 4,300 -48 Descending Chicago Center
Sun 02:11:22 PM 40.8967 -85.6081 175° South 125 144 4,300  Level Chicago Center
Sun 02:11:53 PM 40.8803 -85.6094 184° South 123 142 4,300 -97 Level Chicago Center
Sun 02:12:24 PM 40.8617 -85.6061 172° South 125 144 4,200 -258 Descending Chicago Center
Sun 02:13:26 PM 40.8256 -85.6047 178° South 127 146 3,900 -194 Descending Chicago Center
Sun 02:14:28 PM 40.7900 -85.6061 182° South 128 147 3,800 -97 Descending Chicago Center
Sun 02:15:30 PM 40.7556 -85.6058 180° South 126 145 3,700  Descending Chicago Center
Sun 02:16:32 PM 40.7225 -85.6019 175° South 123 142 3,800  Climbing Chicago Center
Sun 02:17:34 PM 40.6800 -85.5992 177° South 125 144 3,700 -48 Descending Chicago Center
Sun 02:18:36 PM 40.6442 -85.6003 181° South 127 146 3,700 48 Level Chicago Center
Sun 02:19:38 PM 40.6103 -85.6050 186° South 123 142 3,800 48 Climbing Chicago Center
Sun 02:20:40 PM 40.5764 -85.6064 182° South 122 140 3,800  Level Chicago Center
Sun 02:21:43 PM 40.5414 -85.6053 179° South 125 144 3,800  Level Chicago Center
Sun 02:22:45 PM 40.5056 -85.6058 181° South 128 147 3,800 -48 Level Chicago Center
Sun 02:23:47 PM 40.4631 -85.6092 183° South 128 147 3,700 -97 Descending Chicago Center
Sun 02:24:49 PM 40.4283 -85.6097 181° South 126 145 3,600 -48 Descending Chicago Center
Sun 02:25:51 PM 40.3939 -85.6139 185° South 125 144 3,600  Level Chicago Center
Sun 02:26:53 PM 40.3600 -85.6161 183° South 124 143 3,600 -48 Level Chicago Center
Sun 02:27:55 PM 40.3233 -85.6167 181° South 126 145 3,500 -48 Descending Chicago Center
Sun 02:28:57 PM 40.2875 -85.6158 179° South 128 147 3,500 -97 Level Chicago Center
Sun 02:29:59 PM 40.2447 -85.6158 180° South 128 147 3,300 -194 Descending Chicago Center

Login

Don't have an account? Register now (free) for customized features, flight alerts, and more!